Aviation Forecast PDF Print E-mail

 
met_logo

NATIONAL METEOROLOGICAL SERVICE OF BELIZE

Area Forecast for the Country of Belize


For the period from:

1200 05  FEBRUARY  2016

to

2400  05  FEBRUARY  2016

All Heights in the forecast are above sea level. PS= Positive, MS= Minus. All times are UTC.


A.

SPECIAL FEATURES of the METEOROLOGICAL SITUATION

COLD FRONT WILL BECOME STATIONARY AND MAINTAIN WINDY, COOL AND RELATIVELY MOIST CONDITIONS....

B.

HEIGHT (Ft)

WIND (True Degrees and Knots)

TEMPERATURE (°C)

Surface

32010

PS30-33

2,000

34015

PS18

5,000

36025

PS14

10,000

04015

PS06


C.

CLOUDS (Amount, Type, Ceiling and Top(optional))

 

 SCT/BKN FCU/FST BASES LAYERED 500-1,000FT. (UNTIL 1500Z)

 SCT/BKN CUSC BASES 1,200-2,200FT. TOPS 6,000-8,000FT.

 BKN SC BASES LAYERED 3,500-5,000FT. 

 


D.

SURFACE VISIBILITY:  GREATER THAN 10KM. REDUCED TO 3-8KM IN SHRA / RA.  


E.

WEATHER: CLOUDY WITH A FEW SHOWERS AND PERIODS OF LIGHT RAIN MOSTLY OVER THE SOUTH AND ALONG SOME COASTAL AREAS. 


Remarks, Warnings, Turbulence

Barometric Changes

LOW CLOUDS COVERING HILLS.

RISING

G.

OUTLOOK:

TO 1200 06 FEB-

CLOUDY. FEW SHOWERS / PERIODS OF RAIN MOSTLY SOUTH AND COAST.

H. 

 TAF MZBZ

051110Z 0512/0612 32010KT 9999 SCT018 BKN040 PROB30 TEMPO 0512/0518 5000 RA SCT010 BKN035 PROB40 TEMPO 0521/0609 4000 RA BKN005 BKN035 =

I.

Meteorological Office:

BELIZE

Issued at:

1130 05 FEBRUARY 2016

Forecaster:

M.  GENTLE.